Time;durP1;ratioP1;P1;durP2;ratioP2;P2;SDS_P1;SDS_P2;PMS_P1;PMS_P2;Temp;Humidity;BMP_temperature;BMP_pressure;BME280_temperature;BME280_humidity;BME280_pressure;Samples;Min_cycle;Max_cycle;Signal;HPM_P1;HPM_P2
2021/06/29 00:00:12;;;;;;;1.00;0.20;;;21.60;68.50;;;21.05;51.79;100320.16;5029109;28;20033;-51
2021/06/29 00:02:38;;;;;;;1.55;0.15;;;21.50;68.40;;;21.04;51.78;100323.81;5029131;28;20256;-53
2021/06/29 00:05:05;;;;;;;3.10;0.20;;;21.50;68.30;;;21.02;51.52;100323.22;5028905;28;20033;-58
2021/06/29 00:07:31;;;;;;;1.02;0.10;;;21.50;68.30;;;21.02;51.46;100320.56;5028785;28;20468;-56
2021/06/29 00:09:57;;;;;;;1.02;0.10;;;21.50;68.20;;;21.03;51.56;100324.03;5028965;28;20164;-55
2021/06/29 00:12:23;;;;;;;3.13;0.20;;;21.50;68.20;;;21.04;51.53;100312.41;5029051;28;20026;-58
2021/06/29 00:14:49;;;;;;;1.92;0.20;;;21.50;68.10;;;21.01;51.55;100315.50;5028382;28;20076;-58
2021/06/29 00:17:15;;;;;;;3.90;0.20;;;21.50;68.40;;;20.98;51.35;100307.97;5029018;28;20029;-55
2021/06/29 00:19:41;;;;;;;2.35;0.20;;;21.50;68.40;;;20.99;51.21;100310.41;5028741;28;20545;-55
2021/06/29 00:22:07;;;;;;;2.08;0.20;;;21.50;68.30;;;21.05;50.68;100309.56;5029082;28;20065;-61
2021/06/29 00:24:33;;;;;;;2.78;0.20;;;21.50;67.70;;;21.11;50.57;100310.53;5028435;28;20507;-56
2021/06/29 00:26:59;;;;;;;0.60;0.20;;;21.60;67.50;;;21.01;51.38;100310.19;5028621;28;20033;-56
2021/06/29 00:29:25;;;;;;;1.25;0.15;;;21.50;68.60;;;20.92;51.97;100304.34;5028768;28;20033;-58
2021/06/29 00:31:51;;;;;;;1.27;0.20;;;21.40;68.70;;;20.90;52.11;100306.41;5028952;28;20388;-62
2021/06/29 00:34:17;;;;;;;0.50;0.20;;;21.40;69.00;;;20.97;51.64;100306.34;5028569;28;20033;-53
2021/06/29 00:36:43;;;;;;;2.13;0.20;;;21.40;68.70;;;21.01;51.61;100313.66;5028805;28;20052;-52
2021/06/29 00:39:09;;;;;;;0.28;0.10;;;21.50;68.50;;;21.02;51.21;100302.03;5028275;28;20034;-57
2021/06/29 00:41:34;;;;;;;2.35;0.40;;;21.50;68.30;;;21.08;50.54;100300.38;5028300;28;20029;-58
2021/06/29 00:44:00;;;;;;;3.17;0.20;;;21.50;67.20;;;21.22;49.19;100298.44;5028465;28;20168;-51
2021/06/29 00:46:26;;;;;;;1.38;0.10;;;21.60;66.10;;;21.23;48.67;100295.56;5028467;28;20025;-58
2021/06/29 00:48:52;;;;;;;2.10;0.10;;;21.70;66.00;;;21.23;48.97;100287.63;5028488;28;20034;-59
2021/06/29 00:51:20;;;;;;;3.45;0.17;;;21.70;65.70;;;21.36;48.59;100292.78;5028257;28;20527;-55
2021/06/29 00:53:47;;;;;;;1.85;0.75;;;21.70;65.40;;;21.38;48.41;100293.38;5027961;28;20415;-55
2021/06/29 00:56:14;;;;;;;0.50;0.30;;;21.80;65.90;;;21.37;48.51;100293.59;5028182;28;20101;-59
2021/06/29 00:58:48;;;;;;;1.02;0.20;;;21.80;65.40;;;21.35;49.06;100290.34;5028034;28;20162;-58
2021/06/29 01:01:14;;;;;;;3.13;0.20;;;21.80;65.60;;;21.29;49.01;100292.03;5043127;28;20042;-57
2021/06/29 01:03:44;;;;;;;1.55;0.10;;;21.80;65.90;;;21.20;49.51;100282.72;5027974;28;20043;-56
2021/06/29 01:06:12;;;;;;;1.80;0.10;;;21.70;66.40;;;21.07;50.02;100282.84;5028139;28;20421;-59
2021/06/29 01:08:39;;;;;;;2.65;0.10;;;21.60;66.80;;;20.96;50.79;100281.72;5027877;28;20369;-61
2021/06/29 01:11:05;;;;;;;2.15;0.15;;;21.50;67.60;;;20.84;51.29;100275.50;5027690;28;20037;-56
2021/06/29 01:13:44;;;;;;;1.58;0.20;;;21.40;68.40;;;20.69;53.29;100282.97;5027888;28;20056;-55
2021/06/29 01:16:11;;;;;;;3.58;0.20;;;21.20;69.70;;;20.59;52.74;100283.44;5027787;28;20136;-60
2021/06/29 01:18:40;;;;;;;0.73;0.20;;;21.20;70.00;;;20.54;53.00;100277.97;5028337;28;20030;-59
2021/06/29 01:21:18;;;;;;;1.52;0.10;;;21.10;70.00;;;20.55;52.48;100284.88;5027701;28;20033;-59
2021/06/29 01:23:52;;;;;;;1.77;0.20;;;21.00;70.00;;;20.50;52.80;100274.13;5041594;28;20366;-55
2021/06/29 01:26:27;;;;;;;1.85;0.10;;;21.00;70.00;;;20.46;52.79;100268.44;5042663;28;20065;-55
2021/06/29 01:29:00;;;;;;;0.30;0.20;;;21.00;70.50;;;20.50;52.47;100276.75;5027801;28;20038;-58
2021/06/29 01:31:26;;;;;;;0.50;0.20;;;21.00;69.90;;;20.49;52.87;100272.50;5042629;28;20575;-56
2021/06/29 01:33:53;;;;;;;1.20;0.20;;;21.00;70.70;;;20.46;53.59;100279.03;5027868;28;20465;-58
2021/06/29 01:36:23;;;;;;;2.90;0.17;;;20.90;71.20;;;20.44;54.05;100269.69;5027692;28;20183;-58
2021/06/29 01:38:51;;;;;;;0.47;0.30;;;20.90;71.40;;;20.38;54.42;100267.88;5027496;28;20037;-58
2021/06/29 01:41:20;;;;;;;2.20;0.20;;;20.90;72.10;;;20.33;54.67;100265.84;5027576;28;20037;-56
2021/06/29 01:46:17;;;;;;;0.35;0.13;;;20.80;72.70;;;20.33;54.59;100268.50;5027396;28;20140;-59
2021/06/29 01:48:52;;;;;;;1.17;0.10;;;20.80;73.00;;;20.32;54.73;100266.09;5042527;28;20037;-56
2021/06/29 01:51:19;;;;;;;2.20;0.30;;;20.80;72.80;;;20.28;54.14;100263.06;5027591;28;20227;-57
2021/06/29 01:53:48;;;;;;;4.13;0.10;;;20.80;72.30;;;20.30;53.93;100252.25;5029813;28;20037;-56
2021/06/29 01:56:15;;;;;;;4.05;0.20;;;20.80;72.10;;;20.30;53.79;100253.06;5031622;28;20034;-56
2021/06/29 01:58:53;;;;;;;1.45;0.20;;;20.80;71.90;;;20.28;54.20;100249.81;5031624;28;20037;-56
2021/06/29 02:01:22;;;;;;;1.88;0.10;;;20.80;72.10;;;20.29;54.31;100255.94;5046470;28;20124;-56
2021/06/29 02:03:49;;;;;;;3.95;0.30;;;20.70;72.40;;;20.30;54.39;100246.97;5046296;28;20037;-53
2021/06/29 02:06:17;;;;;;;5.57;0.20;;;20.80;72.60;;;20.28;54.57;100243.72;5031174;28;20069;-57
2021/06/29 02:08:44;;;;;;;1.75;0.20;;;20.70;72.90;;;20.26;54.64;100245.75;5031507;28;20087;-59
2021/06/29 02:11:11;;;;;;;1.00;0.10;;;20.70;73.00;;;20.26;54.42;100259.00;5031162;28;20491;-59
2021/06/29 02:13:38;;;;;;;1.85;0.20;;;20.70;73.00;;;20.23;54.87;100256.78;5031101;28;20056;-57
2021/06/29 02:16:05;;;;;;;2.35;0.20;;;20.70;73.40;;;20.16;55.29;100246.22;5030815;28;20512;-53
2021/06/29 02:18:31;;;;;;;0.40;0.20;;;20.70;74.00;;;20.13;55.16;100247.47;5031000;28;20067;-57
2021/06/29 02:20:57;;;;;;;0.93;0.10;;;20.60;73.90;;;20.15;55.06;100248.06;5031170;28;20049;-52
2021/06/29 02:23:23;;;;;;;2.05;0.50;;;20.60;73.90;;;20.14;55.15;100242.97;5030890;28;20033;-55
2021/06/29 02:25:50;;;;;;;1.30;0.20;;;20.60;74.20;;;20.10;55.98;100242.59;5031298;28;20038;-58
2021/06/29 02:28:16;;;;;;;3.55;0.20;;;20.60;75.00;;;20.03;56.42;100247.09;5031064;28;20052;-58
2021/06/29 02:30:42;;;;;;;0.70;0.20;;;20.50;75.60;;;19.96;56.66;100243.69;5030876;28;20021;-56
2021/06/29 02:33:08;;;;;;;0.60;0.20;;;20.50;76.00;;;20.01;56.20;100230.63;5045804;28;20373;-58
2021/06/29 02:35:35;;;;;;;1.13;0.20;;;20.50;75.50;;;20.09;55.33;100242.81;5031109;28;20057;-59
2021/06/29 02:38:03;;;;;;;3.90;0.22;;;20.50;74.90;;;20.08;55.43;100234.06;5030779;28;20053;-55
2021/06/29 02:43:05;;;;;;;1.08;0.20;;;20.50;74.60;;;20.10;55.23;100226.72;4969750;22;20088;-59
2021/06/29 02:45:31;;;;;;;1.40;0.20;;;20.50;74.50;;;20.11;54.71;100217.78;5045655;28;20191;-61
2021/06/29 02:47:58;;;;;;;0.38;0.13;;;20.50;74.00;;;20.14;54.52;100222.63;5030369;28;20120;-53
2021/06/29 02:50:25;;;;;;;1.30;0.20;;;20.60;73.80;;;20.18;53.49;100220.38;5030206;28;20029;-59
2021/06/29 02:52:51;;;;;;;0.85;0.13;;;20.60;72.60;;;20.25;52.45;100220.34;5030306;28;20026;-59
2021/06/29 02:55:17;;;;;;;1.10;0.10;;;20.70;71.30;;;20.29;51.63;100226.81;5030848;28;20029;-55
2021/06/29 02:57:44;;;;;;;1.95;0.10;;;20.70;70.40;;;20.32;51.52;100232.47;5030266;28;20065;-55
2021/06/29 03:00:18;;;;;;;0.90;0.17;;;20.80;70.30;;;20.36;51.47;100219.63;5030219;28;20026;-57
2021/06/29 03:02:45;;;;;;;1.90;0.20;;;20.80;70.20;;;20.35;51.59;100224.09;5030083;28;20029;-60
2021/06/29 03:05:12;;;;;;;1.52;0.10;;;20.80;70.50;;;20.36;51.43;100217.78;5030003;28;20033;-52
2021/06/29 03:07:38;;;;;;;2.53;0.20;;;20.80;70.20;;;20.39;51.38;100213.94;5030107;28;20454;-55
2021/06/29 03:10:06;;;;;;;0.32;0.10;;;20.80;69.90;;;20.41;51.01;100219.84;5029975;28;20034;-60
2021/06/29 03:12:34;;;;;;;1.73;0.20;;;20.80;69.80;;;20.49;51.20;100222.22;5030297;28;20136;-59
2021/06/29 03:15:01;;;;;;;0.85;0.10;;;20.90;70.10;;;20.54;50.73;100225.84;5030089;28;20045;-59
2021/06/29 03:17:28;;;;;;;1.70;0.10;;;21.00;69.30;;;20.61;50.10;100222.34;5044834;28;20576;-56
2021/06/29 03:19:55;;;;;;;0.30;0.10;;;21.00;68.40;;;20.64;49.85;100220.06;5045075;28;20495;-57
2021/06/29 03:22:21;;;;;;;1.55;0.20;;;21.10;68.20;;;20.73;49.45;100226.72;5045122;28;20052;-56
2021/06/29 03:24:50;;;;;;;1.05;0.20;;;21.10;68.10;;;20.75;49.53;100231.81;5029798;28;20047;-53
2021/06/29 03:27:17;;;;;;;1.77;0.15;;;21.20;67.90;;;20.77;49.29;100224.47;5029683;28;20141;-60
2021/06/29 03:29:44;;;;;;;3.10;0.20;;;21.20;67.80;;;20.80;49.39;100224.81;5029457;28;20105;-57
2021/06/29 03:32:10;;;;;;;3.35;0.10;;;21.20;67.80;;;20.84;48.84;100231.28;5029684;28;20120;-60
2021/06/29 03:34:36;;;;;;;3.72;0.20;;;21.30;67.40;;;20.89;48.97;100228.00;5029567;28;20150;-58
2021/06/29 03:37:03;;;;;;;2.97;0.28;;;21.30;67.40;;;20.85;49.67;100221.50;5029868;28;20029;-57
2021/06/29 03:39:32;;;;;;;0.60;0.20;;;21.30;67.90;;;20.85;49.69;100240.84;5044631;28;20349;-62
2021/06/29 03:41:58;;;;;;;1.15;0.20;;;21.30;67.90;;;20.82;49.99;100230.69;5029262;28;20485;-56
2021/06/29 03:44:24;;;;;;;2.55;0.20;;;21.30;68.60;;;20.81;50.55;100234.38;5029374;28;20345;-61
2021/06/29 03:46:50;;;;;;;0.85;0.22;;;21.30;69.00;;;20.81;50.62;100234.38;5029636;28;20042;-55
2021/06/29 03:49:16;;;;;;;1.25;0.10;;;21.30;69.40;;;20.89;50.71;100235.94;5029392;28;20120;-57
2021/06/29 03:51:43;;;;;;;0.70;0.10;;;21.30;69.60;;;20.85;51.15;100234.75;5029466;28;20040;-55
2021/06/29 03:54:09;;;;;;;3.70;0.25;;;21.40;69.90;;;20.92;50.89;100235.50;5029367;28;20332;-58
2021/06/29 03:56:35;;;;;;;0.70;0.20;;;21.40;69.60;;;20.96;51.11;100241.19;5029226;28;20029;-57
2021/06/29 03:59:07;;;;;;;0.60;0.20;;;21.50;69.70;;;21.04;50.59;100235.59;5029271;28;20025;-55
2021/06/29 04:01:35;;;;;;;0.25;0.10;;;21.50;69.30;;;21.06;50.84;100230.91;5043995;28;20036;-56
2021/06/29 04:04:01;;;;;;;0.50;0.20;;;21.60;69.60;;;21.10;50.64;100232.09;5029123;28;20037;-52
2021/06/29 04:06:34;;;;;;;4.60;0.30;;;21.60;70.00;;;21.22;50.69;100230.38;5028919;28;20562;-52
2021/06/29 04:09:01;;;;;;;0.60;0.20;;;21.80;69.40;;;21.26;50.64;100225.44;5043953;28;20120;-55
2021/06/29 04:11:28;;;;;;;2.30;0.20;;;21.80;69.40;;;21.60;50.25;100221.38;5028915;28;20033;-58
2021/06/29 04:13:55;;;;;;;0.95;0.20;;;22.20;68.80;;;22.07;48.75;100227.72;5028797;28;20118;-54
2021/06/29 04:16:22;;;;;;;3.55;0.28;;;22.70;67.30;;;22.54;47.76;100223.34;5028474;28;20037;-54
2021/06/29 04:18:48;;;;;;;1.25;0.20;;;23.30;65.80;;;22.96;46.73;100221.44;5028569;28;20033;-58
2021/06/29 04:21:15;;;;;;;1.48;0.20;;;23.80;64.00;;;23.21;46.06;100213.19;5028782;28;20037;-49
2021/06/29 04:23:45;;;;;;;1.48;0.17;;;24.20;62.30;;;23.70;44.90;100209.19;5028635;28;20432;-54
2021/06/29 04:26:18;;;;;;;0.80;0.20;;;24.70;61.90;;;23.72;44.68;100208.94;5028643;28;20468;-58
2021/06/29 04:28:46;;;;;;;1.40;0.25;;;25.10;60.20;;;24.20;43.39;100205.84;5028531;28;20552;-56
2021/06/29 04:31:12;;;;;;;1.35;0.20;;;25.40;59.50;;;24.33;42.88;100199.44;5029085;28;20102;-55
2021/06/29 04:33:38;;;;;;;1.48;0.20;;;25.90;58.00;;;24.54;42.70;100200.59;5028262;28;20096;-55
2021/06/29 04:36:05;;;;;;;3.30;0.10;;;26.00;57.90;;;24.94;41.92;100200.38;5028689;28;20037;-56
2021/06/29 04:38:31;;;;;;;1.10;0.30;;;26.40;57.10;;;24.67;42.22;100197.56;5028062;28;20029;-54
2021/06/29 04:40:57;;;;;;;0.90;0.20;;;26.30;56.50;;;24.52;42.48;100192.84;5028235;28;20124;-50
2021/06/29 04:43:23;;;;;;;1.58;0.20;;;26.10;57.00;;;25.16;41.61;100198.56;5027911;28;20059;-55
2021/06/29 04:45:48;;;;;;;0.45;0.20;;;26.50;56.60;;;25.26;41.33;100197.88;5028259;28;20112;-56
2021/06/29 04:48:14;;;;;;;1.25;0.30;;;27.00;55.80;;;25.52;40.95;100193.69;5028218;28;20034;-56
2021/06/29 04:50:42;;;;;;;1.23;0.25;;;27.30;55.10;;;25.85;40.01;100196.22;5028180;28;20059;-53
2021/06/29 04:53:08;;;;;;;4.63;0.43;;;27.50;54.20;;;25.91;39.91;100192.53;5028044;28;20082;-57
2021/06/29 04:55:34;;;;;;;3.55;0.20;;;27.60;53.80;;;26.44;38.58;100204.25;5028155;28;20043;-56
2021/06/29 04:58:00;;;;;;;1.77;0.20;;;28.20;53.10;;;26.24;38.98;100196.03;5028005;28;20044;-55
2021/06/29 05:00:26;;;;;;;1.77;0.20;;;28.20;52.80;;;26.36;38.68;100194.84;5028043;28;20056;-56
2021/06/29 05:02:52;;;;;;;3.10;0.20;;;28.30;52.60;;;26.31;38.84;100199.31;5027931;28;20133;-52
2021/06/29 05:05:18;;;;;;;2.67;0.20;;;28.30;52.90;;;26.70;38.19;100192.66;5043093;28;20473;-55
2021/06/29 05:07:45;;;;;;;2.95;0.40;;;28.70;52.00;;;27.32;37.06;100189.28;5027808;28;20044;-54
2021/06/29 05:10:12;;;;;;;1.08;0.30;;;29.20;51.00;;;28.05;35.58;100203.41;5043007;28;20037;-55
2021/06/29 05:12:38;;;;;;;5.15;0.22;;;30.00;50.10;;;28.11;35.58;100198.06;5027732;28;20036;-56
2021/06/29 05:15:08;;;;;;;2.97;0.30;;;30.40;49.30;;;29.01;33.88;100209.84;5028076;28;20033;-56
2021/06/29 05:17:34;;;;;;;2.47;0.10;;;31.20;48.00;;;28.37;34.56;100205.06;5027773;28;20116;-52
2021/06/29 05:20:01;;;;;;;2.42;0.20;;;30.80;47.80;;;27.23;36.74;100222.16;5027496;28;20389;-55
2021/06/29 05:22:26;;;;;;;1.20;0.20;;;29.50;49.90;;;26.34;38.07;100210.31;5027531;28;20052;-55
2021/06/29 05:24:52;;;;;;;3.28;1.00;;;28.30;51.50;;;25.90;38.81;100214.13;5027444;28;20041;-51
2021/06/29 05:27:18;;;;;;;2.95;0.65;;;27.50;52.60;;;25.10;40.66;100212.88;5026769;28;20049;-56
2021/06/29 05:29:44;;;;;;;0.57;0.22;;;26.70;54.40;;;25.06;40.64;100209.06;5027512;28;20042;-54
2021/06/29 05:32:10;;;;;;;0.73;0.20;;;26.20;55.60;;;26.60;38.17;100219.31;5027713;28;20122;-56
2021/06/29 05:34:37;;;;;;;0.75;0.20;;;27.50;53.40;;;27.30;36.77;100212.03;5027804;28;20480;-55
2021/06/29 05:37:03;;;;;;;4.47;0.20;;;29.00;50.80;;;28.29;34.73;100208.31;5042788;28;20424;-56
2021/06/29 05:39:29;;;;;;;0.90;0.17;;;30.20;49.20;;;29.09;33.46;100205.78;5027505;28;20053;-52
2021/06/29 05:41:55;;;;;;;2.05;0.20;;;31.20;47.30;;;28.97;33.29;100211.44;5027320;28;20069;-55
2021/06/29 05:44:21;;;;;;;1.75;0.10;;;31.40;46.60;;;29.21;32.70;100212.47;5027391;28;20111;-57
2021/06/29 05:46:48;;;;;;;2.10;0.10;;;31.80;46.00;;;27.26;36.58;100209.06;5027240;28;20515;-55
2021/06/29 05:49:14;;;;;;;1.77;0.20;;;29.80;48.80;;;26.98;37.27;100210.25;5042233;28;20488;-57
2021/06/29 05:51:46;;;;;;;1.85;0.20;;;28.90;50.40;;;28.45;34.69;100201.84;5027159;28;20044;-55
2021/06/29 05:54:16;;;;;;;1.55;0.10;;;30.30;48.60;;;28.44;34.26;100216.31;5042163;28;20042;-56
2021/06/29 05:56:43;;;;;;;1.00;0.17;;;30.60;47.90;;;29.17;33.07;100216.78;5027564;28;20053;-55
2021/06/29 05:59:10;;;;;;;1.95;0.10;;;31.30;46.70;;;29.85;32.57;100208.13;5027374;28;20048;-58
2021/06/29 06:01:36;;;;;;;7.55;0.32;;;32.00;46.10;;;30.32;31.69;100221.00;5027353;28;20402;-55
2021/06/29 06:04:02;;;;;;;4.28;0.10;;;32.80;45.10;;;30.27;31.85;100211.09;5027159;28;20492;-52
2021/06/29 06:06:28;;;;;;;2.30;0.20;;;32.90;45.10;;;30.42;31.53;100212.84;5027170;28;20036;-57
2021/06/29 06:08:54;;;;;;;5.90;0.20;;;33.20;45.40;;;30.77;31.16;100225.19;5027304;28;20050;-55
2021/06/29 06:11:20;;;;;;;8.68;0.30;;;33.50;44.30;;;30.75;31.35;100219.28;5027110;28;20147;-56
2021/06/29 06:13:47;;;;;;;2.35;0.22;;;33.80;44.00;;;30.31;32.26;100225.56;5027169;28;20124;-57
2021/06/29 06:16:13;;;;;;;4.00;0.38;;;33.40;44.10;;;30.51;31.72;100227.28;5041949;28;20370;-55
2021/06/29 06:18:39;;;;;;;4.78;0.30;;;33.30;44.20;;;30.65;31.82;100217.53;5027036;28;20057;-59
2021/06/29 06:21:06;;;;;;;2.45;0.70;;;33.70;43.90;;;30.66;31.43;100226.38;5026981;28;20473;-55
2021/06/29 06:23:32;;;;;;;2.75;0.20;;;33.60;43.40;;;29.36;32.83;100215.06;5026884;28;20044;-57
2021/06/29 06:25:58;;;;;;;4.78;0.20;;;32.10;45.40;;;28.67;34.83;100218.47;5026755;28;20543;-53
2021/06/29 06:28:24;;;;;;;6.07;0.38;;;30.70;47.90;;;28.35;35.12;100228.66;5027098;28;20125;-54
2021/06/29 06:30:50;;;;;;;2.15;0.20;;;30.20;48.50;;;28.26;35.36;100228.38;5026803;28;20022;-54
2021/06/29 06:33:16;;;;;;;0.68;0.20;;;30.20;48.50;;;29.45;33.63;100225.25;5027038;28;20121;-49
2021/06/29 06:35:42;;;;;;;2.72;0.20;;;31.60;47.00;;;30.21;32.19;100235.59;5026711;28;20435;-56
2021/06/29 06:38:08;;;;;;;5.43;0.20;;;32.10;46.30;;;29.00;34.38;100227.81;5026935;28;20025;-57
2021/06/29 06:40:34;;;;;;;1.33;0.30;;;31.20;47.70;;;28.19;35.87;100240.41;5029724;28;20029;-56
2021/06/29 06:42:59;;;;;;;2.15;0.50;;;29.90;49.50;;;27.73;37.07;100242.97;5029895;28;20037;-55
2021/06/29 06:45:25;;;;;;;2.03;0.20;;;29.00;51.30;;;27.56;37.34;100245.00;5030127;28;20049;-53
2021/06/29 06:47:55;;;;;;;5.00;0.30;;;28.70;52.10;;;27.52;37.81;100246.59;5030180;28;20029;-52
2021/06/29 06:50:22;;;;;;;2.55;0.40;;;28.60;52.50;;;27.85;36.73;100251.59;5030173;28;20879;-54
2021/06/29 06:52:49;;;;;;;3.80;0.20;;;28.90;51.80;;;27.72;37.04;100252.06;5030200;28;20022;-53
2021/06/29 06:55:24;;;;;;;5.15;0.20;;;28.90;51.90;;;27.94;36.88;100249.97;5030263;28;20492;-57
2021/06/29 06:57:50;;;;;;;2.60;0.20;;;28.80;52.20;;;28.11;36.74;100251.63;5044938;28;20034;-53
2021/06/29 07:00:16;;;;;;;2.40;0.30;;;29.10;51.80;;;28.67;35.28;100252.50;5029938;28;20476;-55
2021/06/29 07:02:42;;;;;;;3.80;0.30;;;29.70;50.90;;;29.66;34.02;100249.06;5030474;28;20125;-55
2021/06/29 07:05:09;;;;;;;4.25;0.30;;;31.00;49.00;;;30.29;32.80;100248.41;5044857;28;20042;-54
2021/06/29 07:07:35;;;;;;;1.77;0.25;;;32.30;46.80;;;30.49;32.77;100255.53;5028417;28;20060;-57
2021/06/29 07:10:03;;;;;;;3.22;0.30;;;32.20;47.00;;;30.15;32.99;100258.22;5029913;28;20064;-56
2021/06/29 07:12:28;;;;;;;6.70;0.20;;;31.90;47.80;;;29.82;33.34;100254.34;5030034;28;20033;-56
2021/06/29 07:14:55;;;;;;;4.18;0.20;;;31.10;48.70;;;29.04;34.81;100258.38;5030176;28;20032;-51
2021/06/29 07:17:21;;;;;;;2.88;0.30;;;30.30;49.90;;;28.32;36.45;100256.00;5029945;28;20353;-56
2021/06/29 07:19:47;;;;;;;3.85;0.30;;;29.50;51.30;;;28.28;36.67;100260.25;5030015;28;20029;-55
2021/06/29 07:22:13;;;;;;;4.88;0.30;;;29.30;52.10;;;28.06;37.29;100253.22;5029624;28;20049;-47
2021/06/29 07:24:39;;;;;;;3.75;0.57;;;29.00;52.50;;;28.55;36.34;100258.13;5029328;28;20488;-55
2021/06/29 07:27:06;;;;;;;8.05;0.30;;;29.10;52.50;;;28.61;36.36;100251.69;5029198;28;20033;-51
2021/06/29 07:29:32;;;;;;;0.47;0.30;;;29.30;52.40;;;28.41;36.67;100255.16;5029215;28;20116;-54
2021/06/29 07:32:00;;;;;;;2.15;0.28;;;29.20;52.40;;;28.63;36.30;100260.28;5029149;28;20033;-54
2021/06/29 07:34:26;;;;;;;6.28;0.30;;;29.20;52.50;;;28.99;35.80;100254.88;5029231;28;20185;-55
2021/06/29 07:36:53;;;;;;;3.75;0.22;;;29.50;52.30;;;28.95;35.87;100257.31;5028586;28;20119;-54
2021/06/29 07:39:19;;;;;;;7.05;0.40;;;29.60;52.30;;;29.54;35.20;100259.31;5028460;28;20047;-55
2021/06/29 07:41:44;;;;;;;1.02;0.35;;;29.90;52.10;;;29.44;35.00;100261.22;5028778;28;20044;-53
2021/06/29 07:44:10;;;;;;;5.68;0.40;;;30.10;51.30;;;30.24;33.72;100262.72;5026700;28;20037;-55
2021/06/29 07:46:37;;;;;;;4.78;0.63;;;30.40;51.30;;;30.11;34.30;100254.47;5029499;28;20045;-53
2021/06/29 07:49:04;;;;;;;8.10;0.25;;;30.70;50.80;;;30.06;34.01;100258.00;5029296;28;20042;-52
2021/06/29 07:51:30;;;;;;;4.40;0.30;;;30.70;50.70;;;30.40;33.35;100251.84;5028142;28;20112;-50
2021/06/29 07:53:56;;;;;;;4.10;0.20;;;30.80;50.40;;;31.14;31.79;100259.56;5028824;28;20037;-54
2021/06/29 07:56:22;;;;;;;5.50;0.40;;;31.40;49.60;;;31.20;31.98;100255.69;5028940;28;20203;-53
2021/06/29 07:58:48;;;;;;;5.03;0.32;;;31.50;49.50;;;31.28;31.60;100260.44;5027790;28;20047;-54
2021/06/29 08:01:16;;;;;;;4.13;0.30;;;31.50;49.50;;;31.05;31.87;100261.22;5029026;28;20465;-52
2021/06/29 08:03:43;;;;;;;4.95;0.20;;;31.50;49.20;;;31.46;31.54;100256.22;5028894;28;20228;-53
2021/06/29 08:06:09;;;;;;;4.22;0.20;;;31.80;48.90;;;31.94;30.76;100258.84;5028937;28;20034;-53
2021/06/29 08:08:36;;;;;;;4.25;0.20;;;31.90;48.50;;;32.08;29.87;100264.31;5029282;28;20037;-52
2021/06/29 08:11:07;;;;;;;1.67;0.20;;;32.30;47.60;;;32.20;29.23;100254.66;5027269;28;20041;-54
2021/06/29 08:13:36;;;;;;;4.18;0.40;;;32.40;47.20;;;32.60;28.82;100261.34;5028976;28;20046;-51
2021/06/29 08:16:03;;;;;;;2.15;0.20;;;33.00;46.40;;;32.63;28.60;100249.13;5028751;28;20112;-55
2021/06/29 08:18:30;;;;;;;0.47;0.15;;;33.10;45.60;;;32.81;28.66;100251.00;5028671;28;20388;-53
2021/06/29 08:20:57;;;;;;;7.07;0.40;;;33.30;45.90;;;32.89;27.98;100250.31;5028649;28;20116;-57
2021/06/29 08:23:25;;;;;;;4.80;0.30;;;33.60;45.00;;;32.65;28.06;100252.34;5028293;28;20029;-53
2021/06/29 08:25:51;;;;;;;4.78;0.20;;;33.40;45.00;;;33.13;27.32;100244.72;5028645;28;20029;-48
2021/06/29 08:28:17;;;;;;;2.65;0.20;;;33.60;44.70;;;33.61;26.79;100241.63;5027741;28;20033;-55
2021/06/29 08:30:45;;;;;;;2.55;0.20;;;34.10;44.20;;;33.20;27.22;100252.44;5022028;28;20485;-52
2021/06/29 08:33:11;;;;;;;3.53;0.20;;;33.90;44.10;;;32.83;27.60;100239.91;5017834;28;20037;-51
2021/06/29 08:35:40;;;;;;;2.08;0.20;;;33.50;44.40;;;32.36;28.26;100232.91;5026671;28;20034;-54
2021/06/29 08:38:07;;;;;;;0.70;0.20;;;33.10;44.90;;;32.71;27.71;100240.38;5028622;28;20114;-49
2021/06/29 08:40:39;;;;;;;3.28;0.40;;;33.10;45.00;;;32.46;28.12;100235.44;5028406;28;20373;-51
2021/06/29 08:43:11;;;;;;;1.85;0.20;;;32.90;45.10;;;32.40;28.59;100240.09;5027846;28;20057;-55
2021/06/29 08:45:38;;;;;;;1.90;0.20;;;32.80;45.80;;;32.49;27.86;100245.63;5028503;28;20034;-55
2021/06/29 08:48:06;;;;;;;1.20;0.20;;;32.90;45.20;;;32.62;28.07;100237.53;5028128;28;20437;-53
2021/06/29 08:50:33;;;;;;;2.97;0.43;;;32.90;45.60;;;32.67;28.15;100245.56;5027897;28;20021;-52
2021/06/29 08:53:06;;;;;;;3.67;0.20;;;33.00;45.60;;;33.09;28.32;100235.63;5028471;28;20492;-54
2021/06/29 08:55:50;;;;;;;2.40;0.20;;;33.20;46.00;;;32.47;27.99;100235.13;5027867;28;20033;-52
2021/06/29 08:58:22;;;;;;;1.15;0.20;;;33.00;45.00;;;32.60;28.39;100231.69;5027981;28;20029;-51
2021/06/29 09:00:51;;;;;;;1.75;0.20;;;32.80;45.90;;;32.76;28.05;100229.53;5027843;28;20065;-53
2021/06/29 09:03:17;;;;;;;6.90;0.28;;;33.10;45.50;;;32.59;28.29;100230.06;5011167;28;20132;-56
2021/06/29 09:05:45;;;;;;;1.65;0.40;;;32.90;45.50;;;32.55;27.72;100220.97;5008246;28;20048;-54
2021/06/29 09:08:16;;;;;;;4.38;0.50;;;32.90;44.60;;;32.94;27.09;100227.84;5008275;28;20033;-52
2021/06/29 09:11:05;;;;;;;7.00;0.30;;;33.10;44.80;;;33.21;26.97;100227.03;5022959;28;20069;-52
2021/06/29 09:13:31;;;;;;;2.75;0.28;;;33.40;44.60;;;33.07;27.83;100221.66;5009771;28;20042;-54
2021/06/29 09:15:57;;;;;;;3.50;0.20;;;33.30;45.30;;;33.23;27.65;100224.84;5008373;28;20025;-56
2021/06/29 09:18:29;;;;;;;2.17;0.20;;;33.50;45.30;;;33.06;28.22;100216.56;5007932;28;20073;-51
2021/06/29 09:21:06;;;;;;;2.42;0.20;;;33.50;46.20;;;33.26;27.46;100208.03;5007769;28;20154;-55
2021/06/29 09:23:49;;;;;;;0.70;0.28;;;33.60;45.80;;;33.24;27.83;100211.03;5007966;28;20041;-55
2021/06/29 09:26:18;;;;;;;4.20;0.20;;;33.50;46.00;;;33.36;27.54;100201.66;5007824;28;20508;-52
2021/06/29 09:28:52;;;;;;;2.38;0.30;;;33.60;45.20;;;34.08;26.75;100207.06;5007496;28;20045;-54
2021/06/29 09:31:26;;;;;;;6.13;0.23;;;34.00;45.10;;;34.27;26.17;100203.09;5006711;28;20034;-52
2021/06/29 09:34:08;;;;;;;5.85;0.28;;;34.40;44.30;;;34.30;26.00;100193.59;5022629;28;20311;-51
2021/06/29 09:36:38;;;;;;;2.03;0.30;;;34.50;44.20;;;34.12;26.04;100197.25;5007974;28;20042;-55
2021/06/29 09:39:14;;;;;;;1.02;0.20;;;34.50;43.80;;;34.12;26.09;100189.13;5007764;28;20080;-53
2021/06/29 09:41:42;;;;;;;8.43;0.93;;;34.40;44.30;;;34.46;26.00;100191.31;5007501;28;20116;-54
2021/06/29 09:44:14;;;;;;;3.65;0.57;;;34.50;44.00;;;34.25;26.31;100190.97;5006101;28;20441;-56
2021/06/29 09:46:41;;;;;;;0.80;0.30;;;34.50;43.80;;;33.69;27.13;100183.38;5005968;28;20025;-56
2021/06/29 09:49:12;;;;;;;3.35;0.40;;;34.20;44.10;;;33.23;27.53;100185.16;5006048;28;20121;-57
2021/06/29 09:51:40;;;;;;;2.50;0.28;;;33.60;44.80;;;33.02;27.81;100183.97;5006094;28;20512;-54
2021/06/29 09:54:11;;;;;;;1.35;0.30;;;33.40;45.60;;;33.50;27.42;100175.44;5007733;28;20046;-54
2021/06/29 09:56:42;;;;;;;3.03;0.28;;;33.60;45.20;;;34.13;26.90;100177.22;5007923;28;20392;-56
2021/06/29 09:59:19;;;;;;;6.63;0.50;;;34.10;44.90;;;34.33;26.44;100167.84;5005868;28;20446;-56
2021/06/29 10:01:46;;;;;;;2.15;0.30;;;34.40;44.60;;;34.33;26.64;100159.72;5007569;28;20423;-54
2021/06/29 10:04:13;;;;;;;2.60;0.30;;;34.60;44.20;;;33.95;26.93;100158.22;5007656;28;20068;-53
2021/06/29 10:06:42;;;;;;;6.60;0.30;;;34.30;44.40;;;34.22;27.16;100151.03;5007468;28;20057;-53
2021/06/29 10:09:15;;;;;;;3.20;0.45;;;34.30;45.10;;;34.66;26.29;100152.06;5006404;28;20034;-55
2021/06/29 10:11:52;;;;;;;2.83;0.50;;;34.60;44.50;;;34.96;25.64;100153.97;5005920;28;20046;-50
2021/06/29 10:14:20;;;;;;;4.35;0.50;;;35.00;43.70;;;35.08;25.60;100162.25;5008809;28;20145;-54
2021/06/29 10:16:50;;;;;;;2.33;0.38;;;35.20;43.70;;;35.05;25.60;100149.34;5026173;28;20092;-55
2021/06/29 10:19:33;;;;;;;2.47;0.30;;;35.20;43.60;;;35.44;25.16;100145.00;5011350;28;20038;-53